createdAt,value
2022-09-25T00:00:53.037Z,2.43
2022-09-25T00:03:19.532Z,1.60
2022-09-25T00:05:47.179Z,2.23
2022-09-25T00:08:15.077Z,1.90
2022-09-25T00:10:51.524Z,2.03
2022-09-25T00:13:19.804Z,1.50
2022-09-25T00:15:52.044Z,2.30
2022-09-25T00:18:38.628Z,1.73
2022-09-25T00:21:06.069Z,2.00
2022-09-25T00:23:33.679Z,2.03
2022-09-25T00:26:01.233Z,1.83
2022-09-25T00:28:29.465Z,2.33
2022-09-25T00:30:56.893Z,2.30
2022-09-25T00:33:24.175Z,3.47
2022-09-25T00:35:51.035Z,3.30
2022-09-25T00:38:17.373Z,2.23
2022-09-25T00:40:43.849Z,3.43
2022-09-25T00:43:34.837Z,2.30
2022-09-25T00:46:05.822Z,2.03
2022-09-25T00:48:32.341Z,2.40
2022-09-25T00:51:00.174Z,2.63
2022-09-25T00:53:34.753Z,2.57
2022-09-25T00:56:03.513Z,1.73
2022-09-25T00:58:33.034Z,3.17
2022-09-25T01:01:00.265Z,3.73
2022-09-25T01:03:27.923Z,2.33
2022-09-25T01:05:54.715Z,3.53
2022-09-25T01:08:26.233Z,2.73
2022-09-25T01:10:52.620Z,1.87
2022-09-25T01:13:20.232Z,3.07
2022-09-25T01:15:54.928Z,2.30
2022-09-25T01:18:52.532Z,2.30
2022-09-25T01:21:37.403Z,2.27
2022-09-25T01:24:03.802Z,3.10
2022-09-25T01:27:06.337Z,2.43
2022-09-25T01:30:10.396Z,2.47
2022-09-25T01:32:36.682Z,2.67
2022-09-25T01:35:40.394Z,3.30
2022-09-25T01:38:25.159Z,2.33
2022-09-25T01:40:55.172Z,3.50
2022-09-25T01:43:31.675Z,3.20
2022-09-25T01:46:12.113Z,3.30
2022-09-25T01:48:42.451Z,2.63
2022-09-25T01:51:16.356Z,3.90
2022-09-25T01:53:48.645Z,2.77
2022-09-25T01:56:32.824Z,3.17
2022-09-25T01:59:08.303Z,2.07
2022-09-25T02:01:41.727Z,3.50
2022-09-25T02:04:11.147Z,1.97
2022-09-25T02:06:40.884Z,3.03
2022-09-25T02:09:13.111Z,3.47
2022-09-25T02:11:45.283Z,1.40
2022-09-25T02:14:28.015Z,3.40
2022-09-25T02:16:58.152Z,2.77
2022-09-25T02:19:44.944Z,2.90
2022-09-25T02:22:31.403Z,2.10
2022-09-25T02:25:03.504Z,2.60
2022-09-25T02:27:29.922Z,3.23
2022-09-25T02:29:58.183Z,3.27
2022-09-25T02:32:33.672Z,2.90
2022-09-25T02:35:00.782Z,2.70
2022-09-25T02:37:27.345Z,3.40
2022-09-25T02:39:58.016Z,4.30
2022-09-25T02:42:36.316Z,3.67
2022-09-25T02:45:12.152Z,2.73
2022-09-25T02:47:47.435Z,2.17
2022-09-25T02:50:34.982Z,3.50
2022-09-25T02:53:38.628Z,2.97
2022-09-25T02:56:25.217Z,1.80
2022-09-25T02:58:58.443Z,2.73
2022-09-25T03:01:29.051Z,2.10
2022-09-25T03:03:59.062Z,2.77
2022-09-25T03:06:26.381Z,3.13
2022-09-25T03:08:56.663Z,2.00
2022-09-25T03:11:26.835Z,2.90
2022-09-25T03:14:01.250Z,3.23
2022-09-25T03:16:52.764Z,3.20
2022-09-25T03:19:22.132Z,2.57
2022-09-25T03:21:49.876Z,2.77
2022-09-25T03:24:16.529Z,2.40
2022-09-25T03:26:43.010Z,1.80
2022-09-25T03:29:09.579Z,1.77
2022-09-25T03:31:36.310Z,2.30
2022-09-25T03:34:02.689Z,1.47
2022-09-25T03:36:30.855Z,1.40
2022-09-25T03:39:01.545Z,0.90
2022-09-25T03:41:30.716Z,0.87
2022-09-25T03:43:58.135Z,0.83
2022-09-25T03:46:26.755Z,1.77
2022-09-25T03:48:54.325Z,1.20
2022-09-25T03:51:21.662Z,1.10
2022-09-25T03:53:49.077Z,0.90
2022-09-25T03:56:24.460Z,1.30
2022-09-25T03:58:54.122Z,0.93
2022-09-25T04:01:21.857Z,1.13
2022-09-25T04:03:48.974Z,0.97
2022-09-25T04:06:18.292Z,0.63
2022-09-25T04:08:46.312Z,0.83
2022-09-25T04:11:13.216Z,0.70
2022-09-25T04:13:42.038Z,0.83
2022-09-25T04:16:08.626Z,1.10
2022-09-25T04:18:35.797Z,1.23
2022-09-25T04:21:04.983Z,1.83
2022-09-25T04:23:31.705Z,1.17
2022-09-25T04:25:58.122Z,1.13
2022-09-25T04:28:25.574Z,1.50
2022-09-25T04:30:52.274Z,1.70
2022-09-25T04:33:37.798Z,1.27
2022-09-25T04:36:05.038Z,1.97
2022-09-25T04:38:32.391Z,1.33
2022-09-25T04:41:01.471Z,0.70
2022-09-25T04:43:29.376Z,1.20
2022-09-25T04:46:00.068Z,1.20
2022-09-25T04:48:26.437Z,1.50
2022-09-25T04:50:52.871Z,1.07
2022-09-25T04:53:23.835Z,0.93
2022-09-25T04:55:50.413Z,1.10
2022-09-25T04:58:16.780Z,2.27
2022-09-25T05:00:43.183Z,0.97
2022-09-25T05:03:09.634Z,1.77
2022-09-25T05:05:36.174Z,1.13
2022-09-25T05:08:03.068Z,1.47
2022-09-25T05:10:32.327Z,1.00
2022-09-25T05:13:01.308Z,1.10
2022-09-25T05:15:29.950Z,1.07
2022-09-25T05:18:12.433Z,1.33
2022-09-25T05:20:39.013Z,2.53
2022-09-25T05:23:05.353Z,2.23
2022-09-25T05:25:32.283Z,1.93
2022-09-25T05:28:00.584Z,1.33
2022-09-25T05:30:30.319Z,2.47
2022-09-25T05:33:00.118Z,2.70
2022-09-25T05:35:29.261Z,1.27
2022-09-25T05:37:55.952Z,2.03
2022-09-25T05:40:23.669Z,1.30
2022-09-25T05:42:51.916Z,1.87
2022-09-25T05:45:20.396Z,2.50
2022-09-25T05:47:47.279Z,1.70
2022-09-25T05:50:16.117Z,2.30
2022-09-25T05:52:42.900Z,1.67
2022-09-25T05:55:10.632Z,2.40
2022-09-25T05:57:37.915Z,2.17
2022-09-25T06:00:07.788Z,2.60
2022-09-25T06:02:34.299Z,2.60
2022-09-25T06:05:00.848Z,2.10
2022-09-25T06:07:27.245Z,1.90
2022-09-25T06:09:53.586Z,1.90
2022-09-25T06:12:19.953Z,2.27
2022-09-25T06:14:46.684Z,1.80
2022-09-25T06:17:13.716Z,2.33
2022-09-25T06:19:40.128Z,2.50
2022-09-25T06:22:06.493Z,2.93
2022-09-25T06:24:32.846Z,1.30
2022-09-25T06:26:59.196Z,1.83
2022-09-25T06:29:25.537Z,1.70
2022-09-25T06:31:53.007Z,2.00
2022-09-25T06:34:19.746Z,1.63
2022-09-25T06:36:46.108Z,1.23
2022-09-25T06:39:12.461Z,1.97
2022-09-25T06:41:38.941Z,2.67
2022-09-25T06:44:05.309Z,2.30
2022-09-25T06:46:31.740Z,1.87
2022-09-25T06:48:58.229Z,2.47
2022-09-25T06:51:28.828Z,1.53
2022-09-25T06:53:55.753Z,1.87
2022-09-25T06:56:22.333Z,2.33
2022-09-25T06:58:48.773Z,2.70
2022-09-25T07:01:15.402Z,2.13
2022-09-25T07:03:44.954Z,2.50
2022-09-25T07:06:33.830Z,2.53
2022-09-25T07:09:00.330Z,2.33
2022-09-25T07:11:33.791Z,2.23
2022-09-25T07:14:00.235Z,2.20
2022-09-25T07:16:29.807Z,2.00
2022-09-25T07:19:00.430Z,2.97
2022-09-25T07:21:30.416Z,2.50
2022-09-25T07:23:58.176Z,2.27
2022-09-25T07:26:30.056Z,2.90
2022-09-25T07:28:59.034Z,3.53
2022-09-25T07:31:28.501Z,3.20
2022-09-25T07:33:55.103Z,3.70
2022-09-25T07:36:22.026Z,4.00
2022-09-25T07:38:52.781Z,4.47
2022-09-25T07:41:22.386Z,4.70
2022-09-25T07:44:06.336Z,4.97
2022-09-25T07:46:43.014Z,4.30
2022-09-25T07:49:09.451Z,4.83
2022-09-25T07:51:35.788Z,3.63
2022-09-25T07:54:02.140Z,4.57
2022-09-25T07:56:28.500Z,5.33
2022-09-25T07:58:54.852Z,5.10
2022-09-25T08:01:21.300Z,5.27
2022-09-25T08:03:49.295Z,3.80
2022-09-25T08:06:15.645Z,4.63
2022-09-25T08:08:43.138Z,4.17
2022-09-25T08:11:12.406Z,4.13
2022-09-25T08:13:39.260Z,4.50
2022-09-25T08:16:07.689Z,3.17
2022-09-25T08:18:34.189Z,3.23
2022-09-25T08:21:02.490Z,4.90
2022-09-25T08:23:28.945Z,4.67
2022-09-25T08:25:55.274Z,5.90
2022-09-25T08:28:22.397Z,4.53
2022-09-25T08:30:49.359Z,4.50
2022-09-25T08:33:15.995Z,5.00
2022-09-25T08:35:43.273Z,4.70
2022-09-25T08:38:12.089Z,3.90
2022-09-25T08:40:48.732Z,4.13
2022-09-25T08:43:20.176Z,3.90
2022-09-25T08:46:06.032Z,3.93
2022-09-25T08:48:59.754Z,2.40
2022-09-25T08:51:31.423Z,4.47
2022-09-25T08:53:59.694Z,4.27
2022-09-25T08:56:29.285Z,4.20
2022-09-25T08:59:11.448Z,4.37
2022-09-25T09:01:47.944Z,3.10
2022-09-25T09:04:28.940Z,3.70
2022-09-25T09:07:25.719Z,3.60
2022-09-25T09:10:28.807Z,4.70
2022-09-25T09:13:10.614Z,3.67
2022-09-25T09:15:46.463Z,5.33
2022-09-25T09:18:28.221Z,5.40
2022-09-25T09:20:57.695Z,5.40
2022-09-25T09:23:33.660Z,3.60
2022-09-25T09:26:04.502Z,5.23
2022-09-25T09:28:56.709Z,3.10
2022-09-25T09:32:01.111Z,5.30
2022-09-25T09:35:06.763Z,4.37
2022-09-25T09:37:50.028Z,3.73
2022-09-25T09:40:29.065Z,4.53
2022-09-25T09:43:07.709Z,5.50
2022-09-25T09:45:59.220Z,3.73
2022-09-25T09:48:34.662Z,3.73
2022-09-25T09:51:16.447Z,4.37
2022-09-25T09:53:50.030Z,4.00
2022-09-25T09:56:22.061Z,5.93
2022-09-25T09:59:01.634Z,5.27
2022-09-25T10:01:41.242Z,4.70
2022-09-25T10:04:12.583Z,4.90
2022-09-25T10:06:43.883Z,4.90
2022-09-25T10:09:16.906Z,4.30
2022-09-25T10:11:45.729Z,5.10
2022-09-25T10:14:19.272Z,4.80
2022-09-25T10:16:46.972Z,3.97
2022-09-25T10:19:21.171Z,5.20
2022-09-25T10:22:16.615Z,4.13
2022-09-25T10:25:02.418Z,4.00
2022-09-25T10:27:41.251Z,4.60
2022-09-25T10:30:10.298Z,5.97
2022-09-25T10:33:11.480Z,3.67
2022-09-25T10:35:37.794Z,3.50
2022-09-25T10:38:06.417Z,4.33
2022-09-25T10:40:38.067Z,4.43
2022-09-25T10:43:23.505Z,5.27
2022-09-25T10:46:04.172Z,5.33
2022-09-25T10:48:50.522Z,4.30
2022-09-25T10:51:18.358Z,3.83
2022-09-25T10:53:46.227Z,4.60
2022-09-25T10:56:18.486Z,3.40
2022-09-25T10:58:58.220Z,5.17
2022-09-25T11:01:35.979Z,3.40
2022-09-25T11:04:09.144Z,4.53
2022-09-25T11:06:36.057Z,5.23
2022-09-25T11:09:05.151Z,3.70
2022-09-25T11:11:31.684Z,5.50
2022-09-25T11:14:01.890Z,4.23
2022-09-25T11:16:47.619Z,5.17
2022-09-25T11:19:36.839Z,4.40
2022-09-25T11:22:04.761Z,3.50
2022-09-25T11:25:00.864Z,5.40
2022-09-25T11:27:49.039Z,2.40
2022-09-25T11:30:19.375Z,4.40
2022-09-25T11:33:13.633Z,3.47
2022-09-25T11:35:50.487Z,4.10
2022-09-25T11:38:52.638Z,2.80
2022-09-25T11:41:26.280Z,2.17
2022-09-25T11:44:05.788Z,2.23
2022-09-25T11:46:53.100Z,2.43
2022-09-25T11:49:40.791Z,2.13
2022-09-25T11:52:44.547Z,1.57
2022-09-25T11:55:28.910Z,2.20
2022-09-25T11:58:14.818Z,2.03
2022-09-25T12:01:09.471Z,1.20
2022-09-25T12:03:55.254Z,0.93
2022-09-25T12:06:30.992Z,2.43
2022-09-25T12:09:27.383Z,1.00
2022-09-25T12:12:01.719Z,0.67
2022-09-25T12:15:05.159Z,1.03
2022-09-25T12:17:50.919Z,1.13
2022-09-25T12:20:42.874Z,0.97
2022-09-25T12:23:19.351Z,0.73
2022-09-25T12:26:22.373Z,0.80
2022-09-25T12:29:16.146Z,0.73
2022-09-25T12:31:53.487Z,0.67
2022-09-25T12:34:44.589Z,0.60
2022-09-25T12:37:26.890Z,1.10
2022-09-25T12:40:00.692Z,0.90
2022-09-25T12:42:50.198Z,1.30
2022-09-25T12:45:55.858Z,1.20
2022-09-25T12:48:49.892Z,0.63
2022-09-25T12:51:39.423Z,0.80
2022-09-25T12:54:26.077Z,0.70
2022-09-25T12:57:14.987Z,0.50
2022-09-25T13:00:01.916Z,0.80
2022-09-25T13:02:45.921Z,0.73
2022-09-25T13:05:22.236Z,0.80
2022-09-25T13:07:49.203Z,0.40
2022-09-25T13:10:29.687Z,0.50
2022-09-25T13:13:00.592Z,0.93
2022-09-25T13:15:36.829Z,0.70
2022-09-25T13:18:16.754Z,0.80
2022-09-25T13:20:53.911Z,0.40
2022-09-25T13:23:35.536Z,0.50
2022-09-25T13:26:16.304Z,0.50
2022-09-25T13:29:13.626Z,0.70
2022-09-25T13:31:47.312Z,0.60
2022-09-25T13:34:17.360Z,0.30
2022-09-25T13:36:57.874Z,0.50
2022-09-25T13:39:55.677Z,0.60
2022-09-25T13:42:27.139Z,0.70
2022-09-25T13:45:08.157Z,1.10
2022-09-25T13:47:38.202Z,0.97
2022-09-25T13:50:10.512Z,1.27
2022-09-25T13:52:36.852Z,1.60
2022-09-25T13:55:20.131Z,1.07
2022-09-25T13:57:58.675Z,1.73
2022-09-25T14:00:53.253Z,0.90
2022-09-25T14:03:46.724Z,0.80
2022-09-25T14:06:36.903Z,0.70
2022-09-25T14:09:19.734Z,1.53
2022-09-25T14:12:16.085Z,0.73
2022-09-25T14:14:52.677Z,1.00
2022-09-25T14:17:20.777Z,0.70
2022-09-25T14:19:50.933Z,3.03
2022-09-25T14:22:53.209Z,0.57
2022-09-25T14:25:33.820Z,0.50
2022-09-25T14:28:01.910Z,0.77
2022-09-25T14:30:30.108Z,0.70
2022-09-25T14:33:06.345Z,0.90
2022-09-25T14:35:46.473Z,1.07
2022-09-25T14:38:50.305Z,1.07
2022-09-25T14:41:35.496Z,0.97
2022-09-25T14:44:17.745Z,1.20
2022-09-25T14:46:49.287Z,1.10
2022-09-25T14:49:33.503Z,0.93
2022-09-25T14:52:07.186Z,1.13
2022-09-25T14:54:38.002Z,1.63
2022-09-25T14:57:06.023Z,0.80
2022-09-25T14:59:46.365Z,0.80
2022-09-25T15:02:20.266Z,1.60
2022-09-25T15:04:46.785Z,1.13
2022-09-25T15:07:16.952Z,5.20
2022-09-25T15:09:48.608Z,10.50
2022-09-25T15:12:19.725Z,3.07
2022-09-25T15:15:01.494Z,9.47
2022-09-25T15:17:31.139Z,6.23
2022-09-25T15:20:00.678Z,6.73
2022-09-25T15:22:38.113Z,2.93
2022-09-25T15:25:07.884Z,2.10
2022-09-25T15:27:39.752Z,1.40
2022-09-25T15:30:07.096Z,1.30
2022-09-25T15:32:39.886Z,0.87
2022-09-25T15:35:18.356Z,0.70
2022-09-25T15:37:45.983Z,0.77
2022-09-25T15:40:25.729Z,0.90
2022-09-25T15:42:52.298Z,1.93
2022-09-25T15:45:34.190Z,1.37
2022-09-25T15:48:06.976Z,1.37
2022-09-25T15:50:33.393Z,0.70
2022-09-25T15:53:00.881Z,0.67
2022-09-25T15:55:31.110Z,1.57
2022-09-25T15:58:07.653Z,1.27
2022-09-25T16:00:52.965Z,0.87
2022-09-25T16:03:42.486Z,1.07
2022-09-25T16:06:18.354Z,0.70
2022-09-25T16:08:44.841Z,0.73
2022-09-25T16:11:18.028Z,2.63
2022-09-25T16:13:48.619Z,1.17
2022-09-25T16:16:20.597Z,0.90
2022-09-25T16:18:47.239Z,1.07
2022-09-25T16:21:18.536Z,0.80
2022-09-25T16:23:55.799Z,0.77
2022-09-25T16:26:25.004Z,1.30
2022-09-25T16:29:13.296Z,0.90
2022-09-25T16:31:44.919Z,0.97
2022-09-25T16:34:45.409Z,0.77
2022-09-25T16:37:23.499Z,1.87
2022-09-25T16:40:08.517Z,0.83
2022-09-25T16:42:42.278Z,1.33
2022-09-25T16:45:19.028Z,0.90
2022-09-25T16:47:49.393Z,1.10
2022-09-25T16:50:17.126Z,1.27
2022-09-25T16:52:44.669Z,0.93
2022-09-25T16:55:24.661Z,1.10
2022-09-25T16:57:52.918Z,1.80
2022-09-25T17:00:24.044Z,1.37
2022-09-25T17:02:51.242Z,1.33
2022-09-25T17:05:26.794Z,1.00
2022-09-25T17:07:56.112Z,1.03
2022-09-25T17:10:25.888Z,1.27
2022-09-25T17:12:54.313Z,1.00
2022-09-25T17:15:24.903Z,1.60
2022-09-25T17:17:55.979Z,1.40
2022-09-25T17:20:24.187Z,1.30
2022-09-25T17:22:54.785Z,1.20
2022-09-25T17:25:48.158Z,1.93
2022-09-25T17:28:14.968Z,1.50
2022-09-25T17:30:42.912Z,2.17
2022-09-25T17:33:21.981Z,2.07
2022-09-25T17:35:53.297Z,1.47
2022-09-25T17:38:20.008Z,1.27
2022-09-25T17:40:48.398Z,2.10
2022-09-25T17:43:15.710Z,0.97
2022-09-25T17:45:48.951Z,0.77
2022-09-25T17:48:24.142Z,1.20
2022-09-25T17:50:57.768Z,1.17
2022-09-25T17:53:28.362Z,1.13
2022-09-25T17:55:58.210Z,1.00
2022-09-25T17:58:27.459Z,0.97
2022-09-25T18:00:55.015Z,1.13
2022-09-25T18:03:21.481Z,1.23
2022-09-25T18:05:48.851Z,1.50
2022-09-25T18:08:16.512Z,0.60
2022-09-25T18:10:42.975Z,0.80
2022-09-25T18:13:13.571Z,1.20
2022-09-25T18:16:00.220Z,2.60
2022-09-25T18:18:46.662Z,1.33
2022-09-25T18:21:31.506Z,1.33
2022-09-25T18:23:57.826Z,0.70
2022-09-25T18:26:29.066Z,1.60
2022-09-25T18:28:57.435Z,0.77
2022-09-25T18:31:23.963Z,0.77
2022-09-25T18:33:55.028Z,0.90
2022-09-25T18:36:22.591Z,0.63
2022-09-25T18:38:48.940Z,0.50
2022-09-25T18:41:15.322Z,0.77
2022-09-25T18:43:41.900Z,1.10
2022-09-25T18:46:08.589Z,1.87
2022-09-25T18:48:37.047Z,1.20
2022-09-25T18:51:05.072Z,2.07
2022-09-25T18:53:32.760Z,1.40
2022-09-25T18:55:59.194Z,1.10
2022-09-25T18:58:28.169Z,1.37
2022-09-25T19:00:54.721Z,0.90
2022-09-25T19:03:21.048Z,1.23
2022-09-25T19:05:57.197Z,2.53
2022-09-25T19:08:23.564Z,1.03
2022-09-25T19:10:49.949Z,1.23
2022-09-25T19:13:17.631Z,2.10
2022-09-25T19:15:44.054Z,2.00
2022-09-25T19:18:10.840Z,2.20
2022-09-25T19:20:37.269Z,1.57
2022-09-25T19:23:04.088Z,1.20
2022-09-25T19:25:30.491Z,1.60
2022-09-25T19:27:56.899Z,1.27
2022-09-25T19:30:23.364Z,1.30
2022-09-25T19:32:50.841Z,1.70
2022-09-25T19:35:17.257Z,1.00
2022-09-25T19:37:43.822Z,2.20
2022-09-25T19:40:28.943Z,1.07
2022-09-25T19:42:55.645Z,2.13
2022-09-25T19:45:22.106Z,3.53
2022-09-25T19:47:48.972Z,2.20
2022-09-25T19:50:15.436Z,2.63
2022-09-25T19:52:41.828Z,2.03
2022-09-25T19:55:08.599Z,2.07
2022-09-25T19:57:34.935Z,2.80
2022-09-25T20:00:01.550Z,2.20
2022-09-25T20:02:27.949Z,2.00
2022-09-25T20:04:54.432Z,3.57
2022-09-25T20:07:20.776Z,1.70
2022-09-25T20:09:47.437Z,2.40
2022-09-25T20:12:13.894Z,1.90
2022-09-25T20:14:40.582Z,1.90
2022-09-25T20:17:10.116Z,1.80
2022-09-25T20:19:36.889Z,2.87
2022-09-25T20:22:03.347Z,2.00
2022-09-25T20:24:29.732Z,1.60
2022-09-25T20:26:56.116Z,2.00
2022-09-25T20:29:22.555Z,2.40
2022-09-25T20:31:48.950Z,2.50
2022-09-25T20:34:17.979Z,1.80
2022-09-25T20:36:44.632Z,3.17
2022-09-25T20:39:11.151Z,1.50
2022-09-25T20:41:38.279Z,2.10
2022-09-25T20:44:05.658Z,1.17
2022-09-25T20:46:33.116Z,1.07
2022-09-25T20:49:00.465Z,2.10
2022-09-25T20:51:29.168Z,2.00
2022-09-25T20:53:59.318Z,2.03
2022-09-25T20:56:26.901Z,1.93
2022-09-25T20:58:54.939Z,2.20
2022-09-25T21:01:24.256Z,1.30
2022-09-25T21:03:51.849Z,1.57
2022-09-25T21:06:27.325Z,1.57
2022-09-25T21:08:55.869Z,2.43
2022-09-25T21:11:23.165Z,0.93
2022-09-25T21:13:51.665Z,1.70
2022-09-25T21:16:19.561Z,1.63
2022-09-25T21:18:52.085Z,1.60
2022-09-25T21:21:19.053Z,1.83
2022-09-25T21:23:49.950Z,2.70
2022-09-25T21:26:16.949Z,1.37
2022-09-25T21:28:47.022Z,2.57
2022-09-25T21:31:22.011Z,1.20
2022-09-25T21:33:52.261Z,1.83
2022-09-25T21:36:19.509Z,1.33
2022-09-25T21:38:45.864Z,1.60
2022-09-25T21:41:14.887Z,0.90
2022-09-25T21:43:41.711Z,1.47
2022-09-25T21:46:12.812Z,1.00
2022-09-25T21:48:40.794Z,1.30
2022-09-25T21:51:08.212Z,2.60
2022-09-25T21:53:35.617Z,1.37
2022-09-25T21:56:07.963Z,1.00
2022-09-25T21:58:35.411Z,1.17
2022-09-25T22:01:07.065Z,1.43
2022-09-25T22:03:35.684Z,1.90
2022-09-25T22:06:04.413Z,0.60
2022-09-25T22:08:31.446Z,1.73
2022-09-25T22:10:59.487Z,2.00
2022-09-25T22:13:31.549Z,1.10
2022-09-25T22:16:05.505Z,1.73
2022-09-25T22:18:48.026Z,1.30
2022-09-25T22:21:17.451Z,1.63
2022-09-25T22:23:43.923Z,0.90
2022-09-25T22:26:11.844Z,1.30
2022-09-25T22:28:38.205Z,1.00
2022-09-25T22:31:13.859Z,1.33
2022-09-25T22:33:40.335Z,1.23
2022-09-25T22:36:08.374Z,1.40
2022-09-25T22:38:35.123Z,1.40
2022-09-25T22:41:05.971Z,1.20
2022-09-25T22:43:33.027Z,1.10
2022-09-25T22:45:59.834Z,0.80
2022-09-25T22:48:26.726Z,2.07
2022-09-25T22:50:57.544Z,1.93
2022-09-25T22:53:24.768Z,0.80
2022-09-25T22:55:51.480Z,1.50
2022-09-25T22:58:18.861Z,1.80
2022-09-25T23:00:48.069Z,0.73
2022-09-25T23:03:14.941Z,1.83
2022-09-25T23:05:41.435Z,0.70
2022-09-25T23:08:08.999Z,0.73
2022-09-25T23:11:02.679Z,0.53
2022-09-25T23:13:23.323Z,1.10
2022-09-25T23:15:49.772Z,1.50
2022-09-25T23:18:20.831Z,1.87
2022-09-25T23:20:57.510Z,1.60
2022-09-25T23:23:23.890Z,1.00
2022-09-25T23:25:50.220Z,1.43
2022-09-25T23:28:17.002Z,2.10
2022-09-25T23:30:43.422Z,2.13
2022-09-25T23:33:09.828Z,1.50
2022-09-25T23:35:36.190Z,1.20
2022-09-25T23:38:03.286Z,1.90
2022-09-25T23:40:30.253Z,0.80
2022-09-25T23:42:56.648Z,0.70
2022-09-25T23:45:22.986Z,1.27
2022-09-25T23:47:49.397Z,1.03
2022-09-25T23:50:15.842Z,1.03
2022-09-25T23:52:42.157Z,1.17
2022-09-25T23:55:08.804Z,0.60
2022-09-25T23:57:37.490Z,0.83
